createdAt,value
2018-01-07T00:01:19.443Z,54.55
2018-01-07T00:03:45.781Z,58.63
2018-01-07T00:06:12.888Z,53.08
2018-01-07T00:08:39.230Z,50.70
2018-01-07T00:11:05.565Z,49.80
2018-01-07T00:13:31.883Z,74.18
2018-01-07T00:15:58.212Z,87.03
2018-01-07T00:18:24.552Z,59.72
2018-01-07T00:20:50.920Z,54.85
2018-01-07T00:23:18.019Z,52.25
2018-01-07T00:25:44.379Z,45.85
2018-01-07T00:28:10.708Z,46.10
2018-01-07T00:30:37.048Z,45.40
2018-01-07T00:33:04.120Z,48.08
2018-01-07T00:35:30.454Z,41.90
2018-01-07T00:37:56.754Z,44.42
2018-01-07T00:40:23.058Z,45.75
2018-01-07T00:42:49.399Z,42.70
2018-01-07T00:45:15.696Z,41.78
2018-01-07T00:47:42.023Z,43.13
2018-01-07T00:50:08.304Z,42.08
2018-01-07T00:52:35.400Z,41.20
2018-01-07T00:55:01.723Z,45.47
2018-01-07T00:57:28.863Z,40.03
2018-01-07T00:59:55.144Z,47.62
2018-01-07T01:02:26.652Z,46.10
2018-01-07T01:04:52.936Z,47.45
2018-01-07T01:07:19.251Z,47.22
2018-01-07T01:09:45.544Z,72.28
2018-01-07T01:12:11.896Z,60.85
2018-01-07T01:14:38.252Z,77.30
2018-01-07T01:17:04.604Z,76.45
2018-01-07T01:19:31.688Z,65.95
2018-01-07T01:21:57.998Z,55.58
2018-01-07T01:24:24.291Z,67.40
2018-01-07T01:26:50.673Z,59.33
2018-01-07T01:29:16.975Z,53.95
2018-01-07T01:31:44.034Z,46.63
2018-01-07T01:34:10.335Z,42.78
2018-01-07T01:36:36.665Z,58.50
2018-01-07T01:39:03.010Z,51.13
2018-01-07T01:41:30.063Z,54.80
2018-01-07T01:43:57.096Z,51.08
2018-01-07T01:46:24.190Z,57.75
2018-01-07T01:48:50.561Z,59.97
2018-01-07T01:51:16.899Z,58.15
2018-01-07T01:53:43.244Z,61.30
2018-01-07T01:56:10.270Z,47.70
2018-01-07T01:58:36.591Z,44.97
2018-01-07T02:01:02.978Z,50.72
2018-01-07T02:03:29.354Z,54.70
2018-01-07T02:05:55.646Z,54.95
2018-01-07T02:08:21.981Z,50.15
2018-01-07T02:10:48.321Z,50.92
2018-01-07T02:13:14.687Z,48.50
2018-01-07T02:15:41.010Z,50.67
2018-01-07T02:18:07.354Z,52.85
2018-01-07T02:20:33.703Z,50.42
2018-01-07T02:23:00.728Z,52.92
2018-01-07T02:25:27.060Z,50.28
2018-01-07T02:27:53.375Z,42.35
2018-01-07T02:30:19.712Z,45.75
2018-01-07T02:32:46.055Z,50.75
2018-01-07T02:35:12.412Z,48.97
2018-01-07T02:37:38.718Z,41.30
2018-01-07T02:40:05.826Z,45.20
2018-01-07T02:42:32.129Z,39.40
2018-01-07T02:44:58.487Z,39.95
2018-01-07T02:47:24.840Z,44.05
2018-01-07T02:49:51.157Z,37.78
2018-01-07T02:52:17.480Z,30.15
2018-01-07T02:54:43.800Z,30.85
2018-01-07T02:57:10.137Z,41.05
2018-01-07T02:59:36.473Z,35.28
2018-01-07T03:02:02.822Z,43.35
2018-01-07T03:04:29.131Z,33.60
2018-01-07T03:06:55.439Z,38.63
2018-01-07T03:09:21.790Z,36.22
2018-01-07T03:11:48.092Z,31.90
2018-01-07T03:14:14.408Z,35.17
2018-01-07T03:16:41.452Z,44.13
2018-01-07T03:19:08.503Z,47.75
2018-01-07T03:21:35.546Z,37.67
2018-01-07T03:24:02.595Z,37.17
2018-01-07T03:26:28.946Z,48.30
2018-01-07T03:28:55.291Z,37.92
2018-01-07T03:31:22.399Z,37.90
2018-01-07T03:33:49.503Z,37.50
2018-01-07T03:36:15.822Z,38.90
2018-01-07T03:38:42.118Z,32.70
2018-01-07T03:41:09.183Z,48.05
2018-01-07T03:43:35.499Z,47.28
2018-01-07T03:46:01.815Z,38.22
2018-01-07T03:48:28.903Z,42.45
2018-01-07T03:50:55.230Z,38.65
2018-01-07T03:53:21.543Z,37.33
2018-01-07T03:55:47.876Z,41.80
2018-01-07T03:58:14.214Z,50.30
2018-01-07T04:00:40.541Z,33.35
2018-01-07T04:03:06.871Z,36.58
2018-01-07T04:05:33.186Z,34.30
2018-01-07T04:08:00.223Z,38.00
2018-01-07T04:10:27.295Z,36.30
2018-01-07T04:12:53.595Z,36.30
2018-01-07T04:15:19.950Z,38.20
2018-01-07T04:17:46.217Z,41.97
2018-01-07T04:20:12.549Z,42.75
2018-01-07T04:22:38.878Z,40.35
2018-01-07T04:25:05.167Z,41.40
2018-01-07T04:27:31.485Z,43.83
2018-01-07T04:29:58.577Z,41.47
2018-01-07T04:32:24.882Z,42.78
2018-01-07T04:34:51.206Z,43.63
2018-01-07T04:37:17.512Z,40.00
2018-01-07T04:39:43.851Z,38.65
2018-01-07T04:42:10.896Z,35.15
2018-01-07T04:44:37.929Z,35.60
2018-01-07T04:47:04.260Z,40.50
2018-01-07T04:49:30.610Z,40.05
2018-01-07T04:51:57.716Z,46.00
2018-01-07T04:54:24.059Z,38.80
2018-01-07T04:56:50.446Z,37.53
2018-01-07T04:59:16.770Z,36.58
2018-01-07T05:01:43.122Z,38.97
2018-01-07T05:04:09.418Z,38.78
2018-01-07T05:06:35.743Z,32.47
2018-01-07T05:09:02.824Z,42.35
2018-01-07T05:11:29.919Z,36.97
2018-01-07T05:13:56.250Z,32.95
2018-01-07T05:16:22.575Z,38.08
2018-01-07T05:18:48.866Z,37.53
2018-01-07T05:21:15.182Z,40.60
2018-01-07T05:23:41.534Z,37.03
2018-01-07T05:26:07.828Z,39.42
2018-01-07T05:28:34.886Z,34.33
2018-01-07T05:31:01.202Z,37.60
2018-01-07T05:33:27.603Z,39.22
2018-01-07T05:35:53.952Z,33.90
2018-01-07T05:38:20.996Z,41.90
2018-01-07T05:40:48.051Z,36.40
2018-01-07T05:43:15.134Z,39.38
2018-01-07T05:45:42.195Z,40.92
2018-01-07T05:48:08.533Z,41.35
2018-01-07T05:50:34.873Z,44.72
2018-01-07T05:53:01.227Z,44.40
2018-01-07T05:55:27.607Z,44.47
2018-01-07T05:57:53.926Z,45.05
2018-01-07T06:00:20.994Z,48.90
2018-01-07T06:02:47.305Z,47.88
2018-01-07T06:05:13.614Z,48.85
2018-01-07T06:07:40.024Z,53.63
2018-01-07T06:10:06.390Z,45.42
2018-01-07T06:12:32.781Z,46.33
2018-01-07T06:14:59.109Z,51.60
2018-01-07T06:17:25.426Z,48.28
2018-01-07T06:19:51.722Z,42.33
2018-01-07T06:22:18.099Z,40.40
2018-01-07T06:24:49.250Z,42.95
2018-01-07T06:27:17.221Z,40.20
2018-01-07T06:29:43.519Z,39.50
2018-01-07T06:32:09.827Z,57.80
2018-01-07T06:34:36.134Z,47.35
2018-01-07T06:37:03.205Z,49.25
2018-01-07T06:39:30.590Z,45.47
2018-01-07T06:41:56.922Z,35.55
2018-01-07T06:44:23.231Z,44.10
2018-01-07T06:46:49.547Z,46.70
2018-01-07T06:49:15.853Z,38.22
2018-01-07T06:51:42.906Z,41.67
2018-01-07T06:54:09.964Z,39.47
2018-01-07T06:56:36.277Z,38.75
2018-01-07T06:59:03.342Z,39.03
2018-01-07T07:01:29.632Z,37.95
2018-01-07T07:03:55.965Z,39.97
2018-01-07T07:06:22.270Z,39.25
2018-01-07T07:08:48.593Z,37.10
2018-01-07T07:11:14.891Z,39.92
2018-01-07T07:13:41.209Z,42.80
2018-01-07T07:16:08.262Z,45.85
2018-01-07T07:18:38.458Z,41.63
2018-01-07T07:21:05.503Z,38.08
2018-01-07T07:23:31.787Z,39.00
2018-01-07T07:25:58.101Z,39.55
2018-01-07T07:28:24.432Z,33.95
2018-01-07T07:31:02.323Z,40.90
2018-01-07T07:33:28.706Z,44.25
2018-01-07T07:35:55.062Z,43.92
2018-01-07T07:38:22.102Z,42.45
2018-01-07T07:40:48.447Z,52.62
2018-01-07T07:43:26.550Z,55.65
2018-01-07T07:45:53.628Z,49.45
2018-01-07T07:48:19.987Z,47.67
2018-01-07T07:50:46.275Z,57.33
2018-01-07T07:53:13.377Z,61.05
2018-01-07T07:55:39.668Z,62.62
2018-01-07T07:58:05.990Z,71.97
2018-01-07T08:00:43.394Z,59.10
2018-01-07T08:03:09.707Z,64.50
2018-01-07T08:05:36.015Z,56.05
2018-01-07T08:08:03.126Z,59.88
2018-01-07T08:10:29.427Z,59.67
2018-01-07T08:12:55.721Z,54.35
2018-01-07T08:15:22.066Z,61.60
2018-01-07T08:17:49.132Z,55.63
2018-01-07T08:20:15.443Z,56.17
2018-01-07T08:22:41.771Z,61.30
2018-01-07T08:25:08.796Z,50.22
2018-01-07T08:27:35.159Z,52.53
2018-01-07T08:30:02.234Z,49.42
2018-01-07T08:32:28.572Z,46.45
2018-01-07T08:34:54.891Z,43.67
2018-01-07T08:37:21.215Z,43.65
2018-01-07T08:39:47.523Z,52.55
2018-01-07T08:42:14.586Z,53.00
2018-01-07T08:44:40.914Z,47.88
2018-01-07T08:47:07.343Z,57.88
2018-01-07T08:49:33.664Z,56.03
2018-01-07T08:52:00.071Z,51.97
2018-01-07T08:54:26.420Z,43.80
2018-01-07T08:56:53.463Z,54.92
2018-01-07T08:59:20.532Z,49.05
2018-01-07T09:01:46.870Z,49.55
2018-01-07T09:04:13.216Z,51.85
2018-01-07T09:06:39.519Z,55.97
2018-01-07T09:09:05.839Z,58.15
2018-01-07T09:11:32.916Z,48.40
2018-01-07T09:13:59.261Z,51.65
2018-01-07T09:16:25.546Z,48.87
2018-01-07T09:18:52.555Z,60.60
2018-01-07T09:21:18.935Z,55.45
2018-01-07T09:23:45.271Z,50.58
2018-01-07T09:26:11.615Z,41.45
2018-01-07T09:28:37.901Z,42.20
2018-01-07T09:31:04.223Z,43.17
2018-01-07T09:33:30.544Z,40.40
2018-01-07T09:35:56.867Z,43.92
2018-01-07T09:38:23.179Z,37.88
2018-01-07T09:40:49.540Z,47.00
2018-01-07T09:43:15.859Z,43.65
2018-01-07T09:45:43.263Z,40.45
2018-01-07T09:48:09.652Z,42.15
2018-01-07T09:50:35.960Z,49.13
2018-01-07T09:53:02.319Z,51.03
2018-01-07T09:55:28.653Z,45.73
2018-01-07T09:57:55.031Z,43.03
2018-01-07T10:00:21.370Z,45.35
2018-01-07T10:02:47.869Z,41.37
2018-01-07T10:05:19.517Z,37.60
2018-01-07T10:07:46.584Z,45.50
2018-01-07T10:10:12.938Z,47.85
2018-01-07T10:12:39.381Z,47.72
2018-01-07T10:15:05.759Z,48.00
2018-01-07T10:17:32.095Z,43.63
2018-01-07T10:19:59.178Z,43.90
2018-01-07T10:22:25.454Z,48.38
2018-01-07T10:24:51.799Z,43.30
2018-01-07T10:27:18.888Z,32.28
2018-01-07T10:29:45.247Z,45.50
2018-01-07T10:32:11.607Z,46.67
2018-01-07T10:34:40.049Z,42.83
2018-01-07T10:37:06.420Z,48.83
2018-01-07T10:39:32.800Z,48.22
2018-01-07T10:41:59.131Z,55.45
2018-01-07T10:44:25.455Z,59.38
2018-01-07T10:55:37.237Z,57.60
2018-01-07T10:58:04.798Z,66.50
2018-01-07T11:00:38.087Z,67.03
2018-01-07T11:03:05.641Z,72.78
2018-01-07T11:05:33.169Z,68.93
2018-01-07T11:08:00.714Z,80.10
2018-01-07T11:10:28.255Z,67.62
2018-01-07T11:12:56.608Z,73.82
2018-01-07T11:15:40.795Z,70.25
2018-01-07T11:18:08.454Z,73.25
2018-01-07T11:20:36.061Z,71.28
2018-01-07T11:23:03.675Z,62.22
2018-01-07T11:25:31.315Z,47.03
2018-01-07T11:27:58.907Z,56.67
2018-01-07T11:30:26.492Z,68.10
2018-01-07T11:32:54.155Z,58.13
2018-01-07T11:35:21.735Z,65.90
2018-01-07T11:37:49.328Z,64.00
2018-01-07T11:40:17.699Z,65.45
2018-01-07T11:45:46.761Z,68.40
2018-01-07T11:48:15.139Z,77.32
2018-01-07T11:50:42.719Z,75.15
2018-01-07T11:53:10.308Z,70.72
2018-01-07T11:55:38.707Z,62.40
2018-01-07T11:58:06.299Z,56.05
2018-01-07T12:03:37.667Z,61.00
2018-01-07T12:06:05.301Z,57.80
2018-01-07T12:08:32.942Z,50.03
2018-01-07T12:11:01.330Z,52.97
2018-01-07T12:13:28.983Z,46.55
2018-01-07T12:15:57.422Z,43.35
2018-01-07T12:18:25.029Z,46.78
2018-01-07T12:20:53.406Z,47.65
2018-01-07T12:23:20.974Z,42.22
2018-01-07T12:25:48.589Z,44.88
2018-01-07T12:28:16.211Z,43.83
2018-01-07T12:30:43.840Z,43.42
2018-01-07T12:33:11.577Z,42.90
2018-01-07T12:35:39.184Z,38.45
2018-01-07T12:38:06.843Z,36.78
2018-01-07T12:40:34.466Z,37.35
2018-01-07T12:43:02.074Z,36.00
2018-01-07T12:45:29.630Z,33.45
2018-01-07T12:47:57.263Z,40.50
2018-01-07T12:50:24.844Z,36.38
2018-01-07T12:52:52.447Z,36.25
2018-01-07T12:55:26.431Z,33.50
2018-01-07T12:57:54.795Z,31.35
2018-01-07T13:00:22.389Z,33.72
2018-01-07T13:02:49.992Z,32.80
2018-01-07T13:08:23.439Z,29.10
2018-01-07T13:10:51.819Z,24.63
2018-01-07T13:13:19.459Z,26.65
2018-01-07T13:15:47.160Z,29.23
2018-01-07T13:18:14.756Z,28.52
2018-01-07T13:20:42.368Z,29.63
2018-01-07T13:23:09.932Z,24.98
2018-01-07T13:25:37.550Z,27.20
2018-01-07T13:28:05.999Z,27.60
2018-01-07T13:30:33.624Z,23.02
2018-01-07T13:33:01.226Z,26.02
2018-01-07T13:35:28.856Z,23.75
2018-01-07T13:37:56.440Z,24.35
2018-01-07T13:40:24.022Z,22.30
2018-01-07T13:42:54.713Z,21.55
2018-01-07T13:45:22.479Z,26.15
2018-01-07T13:47:50.150Z,23.60
2018-01-07T13:50:20.790Z,21.25
2018-01-07T13:52:48.442Z,21.40
2018-01-07T13:55:16.052Z,21.55
2018-01-07T13:57:43.701Z,21.58
2018-01-07T14:00:12.122Z,22.65
2018-01-07T14:02:39.741Z,19.80
2018-01-07T14:05:08.160Z,21.98
2018-01-07T14:07:35.791Z,21.90
2018-01-07T14:10:04.155Z,21.20
2018-01-07T14:12:31.752Z,21.73
2018-01-07T14:14:59.365Z,19.90
2018-01-07T14:17:26.955Z,22.20
2018-01-07T14:19:54.575Z,20.12
2018-01-07T14:22:34.794Z,20.30
2018-01-07T14:25:02.363Z,20.08
2018-01-07T14:27:29.996Z,21.62
2018-01-07T14:29:58.368Z,19.73
2018-01-07T14:32:26.727Z,18.92
2018-01-07T14:34:54.289Z,17.52
2018-01-07T14:37:21.847Z,20.17
2018-01-07T14:39:49.479Z,19.95
2018-01-07T14:42:17.083Z,20.25
2018-01-07T14:44:45.476Z,19.10
2018-01-07T14:47:13.137Z,19.02
2018-01-07T14:49:40.717Z,21.17
2018-01-07T14:52:08.298Z,20.25
2018-01-07T14:54:35.907Z,20.65
2018-01-07T14:57:03.576Z,17.75
2018-01-07T14:59:31.152Z,17.45
2018-01-07T15:01:58.752Z,16.12
2018-01-07T15:04:26.383Z,16.20
2018-01-07T15:06:53.982Z,16.00
2018-01-07T15:09:21.608Z,15.32
2018-01-07T15:11:49.218Z,14.35
2018-01-07T15:14:17.640Z,14.20
2018-01-07T15:16:45.230Z,12.48
2018-01-07T15:19:12.919Z,10.90
2018-01-07T15:21:41.320Z,11.20
2018-01-07T15:24:08.985Z,12.10
2018-01-07T15:26:38.598Z,11.15
2018-01-07T15:29:06.285Z,13.15
2018-01-07T15:31:33.912Z,14.50
2018-01-07T15:34:01.583Z,13.85
2018-01-07T15:36:29.187Z,14.20
2018-01-07T15:38:56.806Z,14.93
2018-01-07T15:41:24.407Z,15.52
2018-01-07T15:43:52.029Z,14.40
2018-01-07T15:46:19.666Z,14.48
2018-01-07T15:48:48.063Z,14.63
2018-01-07T15:51:15.647Z,15.75
2018-01-07T15:56:44.056Z,14.70
2018-01-07T15:59:11.650Z,15.25
2018-01-07T16:01:39.220Z,15.20
2018-01-07T16:04:07.620Z,14.57
2018-01-07T16:06:39.009Z,15.82
2018-01-07T16:09:09.895Z,15.55
2018-01-07T16:11:38.256Z,14.63
2018-01-07T16:14:06.616Z,14.63
2018-01-07T16:16:34.234Z,15.02
2018-01-07T16:19:01.868Z,17.70
2018-01-07T16:21:29.469Z,17.27
2018-01-07T16:23:57.114Z,15.50
2018-01-07T16:26:24.693Z,15.63
2018-01-07T16:28:52.287Z,14.38
2018-01-07T16:31:24.568Z,14.48
2018-01-07T16:33:52.918Z,13.65
2018-01-07T16:36:20.520Z,13.45
2018-01-07T16:38:48.157Z,14.65
2018-01-07T16:41:15.801Z,14.50
2018-01-07T16:43:43.425Z,13.65
2018-01-07T16:46:11.018Z,13.88
2018-01-07T16:48:38.632Z,13.90
2018-01-07T16:51:06.265Z,15.52
2018-01-07T16:53:34.654Z,14.60
2018-01-07T16:56:13.352Z,15.50
2018-01-07T16:58:40.984Z,15.70
2018-01-07T17:01:08.612Z,15.30
2018-01-07T17:03:36.214Z,17.50
2018-01-07T17:06:03.865Z,16.15
2018-01-07T17:08:32.319Z,16.17
2018-01-07T17:11:13.631Z,16.95
2018-01-07T17:13:41.220Z,15.13
2018-01-07T17:16:08.824Z,15.43
2018-01-07T17:18:38.429Z,15.85
2018-01-07T17:21:06.040Z,15.60
2018-01-07T17:23:33.669Z,16.40
2018-01-07T17:26:01.295Z,17.27
2018-01-07T17:28:28.969Z,17.20
2018-01-07T17:30:56.658Z,15.82
2018-01-07T17:33:24.284Z,18.00
2018-01-07T17:35:51.912Z,17.45
2018-01-07T17:38:19.555Z,17.80
2018-01-07T17:40:47.199Z,17.45
2018-01-07T17:43:14.843Z,18.23
2018-01-07T17:45:47.434Z,18.00
2018-01-07T17:48:15.064Z,19.73
2018-01-07T17:50:42.721Z,19.20
2018-01-07T17:53:11.174Z,18.00
2018-01-07T17:55:38.789Z,18.80
2018-01-07T17:58:06.367Z,17.92
2018-01-07T18:00:34.056Z,17.60
2018-01-07T18:03:02.441Z,16.05
2018-01-07T18:05:30.036Z,15.88
2018-01-07T18:07:57.717Z,14.52
2018-01-07T18:10:25.365Z,15.00
2018-01-07T18:12:53.041Z,13.13
2018-01-07T18:15:20.690Z,13.43
2018-01-07T18:17:48.305Z,12.60
2018-01-07T18:20:15.981Z,13.00
2018-01-07T18:22:44.433Z,12.93
2018-01-07T18:25:12.079Z,12.07
2018-01-07T18:27:39.855Z,12.73
2018-01-07T18:30:07.515Z,13.80
2018-01-07T18:32:35.188Z,12.75
2018-01-07T18:35:02.844Z,12.63
2018-01-07T18:37:30.537Z,13.20
2018-01-07T18:39:58.121Z,12.15
2018-01-07T18:42:25.766Z,12.37
2018-01-07T18:44:54.228Z,11.68
2018-01-07T18:47:22.686Z,12.40
2018-01-07T18:49:50.386Z,13.62
2018-01-07T18:52:18.813Z,12.13
2018-01-07T18:54:46.456Z,11.57
2018-01-07T18:57:14.156Z,11.55
2018-01-07T18:59:41.838Z,13.18
2018-01-07T19:02:10.427Z,13.68
2018-01-07T19:04:38.871Z,13.70
2018-01-07T19:07:06.553Z,12.65
2018-01-07T19:09:34.270Z,12.10
2018-01-07T19:12:01.898Z,12.90
2018-01-07T19:14:29.534Z,13.55
2018-01-07T19:16:57.168Z,13.60
2018-01-07T19:19:24.781Z,13.10
2018-01-07T19:21:53.158Z,13.43
2018-01-07T19:24:21.564Z,13.25
2018-01-07T19:26:49.221Z,13.48
2018-01-07T19:29:16.885Z,14.02
2018-01-07T19:31:44.575Z,13.20
2018-01-07T19:34:13.000Z,16.77
2018-01-07T19:36:40.616Z,17.00
2018-01-07T19:39:08.251Z,14.32
2018-01-07T19:41:35.949Z,14.57
2018-01-07T19:44:03.623Z,16.37
2018-01-07T19:46:31.323Z,15.55
2018-01-07T19:48:58.993Z,17.83
2018-01-07T19:51:27.437Z,17.70
2018-01-07T19:53:55.173Z,16.20
2018-01-07T19:56:22.835Z,17.80
2018-01-07T19:58:50.489Z,17.05
2018-01-07T20:01:18.141Z,19.45
2018-01-07T20:03:45.774Z,17.52
2018-01-07T20:06:13.459Z,17.85
2018-01-07T20:08:41.108Z,18.30
2018-01-07T20:11:08.717Z,18.80
2018-01-07T20:13:36.373Z,18.77
2018-01-07T20:16:03.980Z,17.23
2018-01-07T20:18:32.392Z,18.80
2018-01-07T20:21:00.035Z,18.08
2018-01-07T20:23:27.699Z,18.02
2018-01-07T20:25:55.299Z,19.25
2018-01-07T20:28:22.941Z,20.60
2018-01-07T20:30:50.560Z,19.95
2018-01-07T20:33:18.260Z,20.02
2018-01-07T20:35:45.902Z,19.73
2018-01-07T20:38:13.552Z,19.20
2018-01-07T20:40:41.185Z,21.73
2018-01-07T20:43:08.817Z,21.12
2018-01-07T20:45:36.485Z,21.65
2018-01-07T20:48:04.091Z,21.50
2018-01-07T20:50:31.800Z,20.10
2018-01-07T20:52:59.412Z,19.65
2018-01-07T20:55:27.129Z,20.73
2018-01-07T20:57:54.829Z,20.20
2018-01-07T21:00:23.275Z,20.98
2018-01-07T21:02:50.947Z,22.67
2018-01-07T21:05:18.567Z,22.50
2018-01-07T21:07:46.211Z,21.55
2018-01-07T21:10:13.846Z,22.20
2018-01-07T21:12:42.261Z,23.92
2018-01-07T21:15:09.918Z,22.30
2018-01-07T21:17:41.542Z,22.30
2018-01-07T21:20:09.216Z,21.90
2018-01-07T21:22:36.905Z,21.35
2018-01-07T21:25:04.506Z,20.65
2018-01-07T21:27:32.143Z,23.08
2018-01-07T21:29:59.754Z,22.40
2018-01-07T21:32:28.131Z,22.40
2018-01-07T21:34:56.549Z,23.77
2018-01-07T21:37:24.215Z,21.85
2018-01-07T21:39:51.933Z,20.35
2018-01-07T21:42:20.305Z,23.70
2018-01-07T21:44:48.039Z,21.65
2018-01-07T21:47:15.659Z,23.60
2018-01-07T21:49:43.330Z,22.10
2018-01-07T21:52:10.995Z,19.98
2018-01-07T21:54:38.690Z,21.90
2018-01-07T21:57:06.396Z,21.60
2018-01-07T21:59:44.544Z,20.67
2018-01-07T22:02:27.698Z,21.33
2018-01-07T22:04:56.286Z,21.50
2018-01-07T22:07:23.936Z,21.42
2018-01-07T22:09:51.547Z,21.20
2018-01-07T22:12:19.903Z,21.27
2018-01-07T22:14:48.325Z,22.95
2018-01-07T22:17:15.991Z,21.65
2018-01-07T22:19:43.614Z,21.85
2018-01-07T22:22:11.289Z,21.10
2018-01-07T22:24:38.879Z,20.17
2018-01-07T22:27:06.561Z,19.95
2018-01-07T22:29:34.204Z,20.85
2018-01-07T22:32:01.834Z,20.83
2018-01-07T22:34:30.275Z,21.52
2018-01-07T22:36:58.709Z,20.50
2018-01-07T22:39:26.359Z,21.17
2018-01-07T22:41:54.116Z,22.58
2018-01-07T22:44:21.759Z,20.70
2018-01-07T22:46:49.443Z,19.95
2018-01-07T22:49:17.176Z,21.55
2018-01-07T22:51:45.659Z,20.80
2018-01-07T22:54:14.068Z,21.52
2018-01-07T22:56:41.730Z,21.12
2018-01-07T22:59:09.333Z,21.55
2018-01-07T23:01:36.991Z,20.23
2018-01-07T23:04:04.662Z,20.70
2018-01-07T23:06:32.337Z,21.48
2018-01-07T23:09:00.755Z,20.08
2018-01-07T23:11:28.413Z,20.67
2018-01-07T23:13:56.024Z,20.60
2018-01-07T23:16:23.684Z,20.35
2018-01-07T23:18:51.448Z,20.33
2018-01-07T23:21:19.064Z,21.55
2018-01-07T23:23:46.655Z,20.37
2018-01-07T23:26:14.335Z,21.30
2018-01-07T23:28:42.570Z,22.10
2018-01-07T23:31:10.301Z,19.77
2018-01-07T23:33:38.713Z,21.35
2018-01-07T23:36:06.359Z,20.55
2018-01-07T23:38:34.004Z,21.83
2018-01-07T23:41:01.642Z,19.67
2018-01-07T23:43:29.274Z,20.50
2018-01-07T23:45:57.021Z,20.70
2018-01-07T23:48:24.704Z,19.77
2018-01-07T23:50:52.326Z,19.25
2018-01-07T23:53:19.997Z,21.00
2018-01-07T23:55:47.658Z,20.90
2018-01-07T23:58:15.292Z,20.23
